createdAt,value
2023-01-04T00:00:00.320Z,2
2023-01-04T00:10:00.274Z,2
2023-01-04T00:15:00.200Z,2
2023-01-04T00:20:00.298Z,3
2023-01-04T00:25:00.229Z,2
2023-01-04T00:30:00.268Z,2
2023-01-04T00:35:00.308Z,1
2023-01-04T00:40:00.268Z,2
2023-01-04T00:45:00.243Z,1
2023-01-04T00:50:00.358Z,1
2023-01-04T00:55:00.206Z,1
2023-01-04T01:05:00.215Z,3
2023-01-04T01:10:00.296Z,1
2023-01-04T01:15:00.828Z,2
2023-01-04T01:25:00.238Z,3
2023-01-04T01:35:00.204Z,3
2023-01-04T01:40:00.412Z,2
2023-01-04T01:45:00.306Z,1
2023-01-04T01:50:00.286Z,0
2023-01-04T01:55:00.318Z,0
2023-01-04T02:00:00.304Z,1
2023-01-04T02:05:00.247Z,1
2023-01-04T02:10:00.241Z,1
2023-01-04T02:20:00.221Z,2
2023-01-04T02:30:00.263Z,2
2023-01-04T02:35:00.276Z,3
2023-01-04T02:40:00.275Z,1
2023-01-04T02:45:00.208Z,2
2023-01-04T03:00:00.253Z,3
2023-01-04T03:05:00.297Z,2
2023-01-04T03:10:00.295Z,1
2023-01-04T03:15:00.342Z,2
2023-01-04T03:20:00.340Z,3
2023-01-04T03:25:00.225Z,2
2023-01-04T03:30:00.302Z,3
2023-01-04T03:35:00.261Z,3
2023-01-04T03:40:00.238Z,3
2023-01-04T03:45:04.513Z,3
2023-01-04T03:50:00.291Z,3
2023-01-04T03:55:00.245Z,2
2023-01-04T04:00:00.353Z,3
2023-01-04T04:05:00.296Z,3
2023-01-04T04:10:00.356Z,3
2023-01-04T04:15:00.207Z,3
2023-01-04T04:20:00.256Z,3
2023-01-04T04:25:00.203Z,3
2023-01-04T04:30:00.320Z,3
2023-01-04T04:35:00.215Z,5
2023-01-04T04:40:00.252Z,4
2023-01-04T04:45:00.213Z,3
2023-01-04T04:50:00.385Z,3
2023-01-04T04:55:00.284Z,4
2023-01-04T05:00:00.295Z,3
2023-01-04T05:05:00.229Z,3
2023-01-04T05:10:00.284Z,4
2023-01-04T05:15:00.277Z,3
2023-01-04T05:20:00.241Z,3
2023-01-04T05:25:00.239Z,4
2023-01-04T05:30:00.273Z,4
2023-01-04T05:35:00.320Z,3
2023-01-04T05:40:00.292Z,5
2023-01-04T05:45:00.238Z,4
2023-01-04T05:50:00.251Z,3
2023-01-04T05:55:00.298Z,3
2023-01-04T06:00:00.220Z,4
2023-01-04T06:05:00.249Z,4
2023-01-04T06:10:00.278Z,3
2023-01-04T06:15:00.275Z,4
2023-01-04T06:20:00.230Z,3
2023-01-04T06:25:00.234Z,4
2023-01-04T06:30:00.295Z,4
2023-01-04T06:35:00.232Z,4
2023-01-04T06:40:00.254Z,3
2023-01-04T06:45:00.222Z,4
2023-01-04T06:50:00.280Z,3
2023-01-04T06:55:00.237Z,5
2023-01-04T07:00:00.291Z,3
2023-01-04T07:05:00.271Z,3
2023-01-04T07:10:05.358Z,4
2023-01-04T07:15:00.240Z,3
2023-01-04T07:20:00.234Z,3
2023-01-04T07:25:00.242Z,3
2023-01-04T07:30:00.246Z,4
2023-01-04T07:35:00.250Z,4
2023-01-04T07:40:00.254Z,4
2023-01-04T07:45:00.271Z,5
2023-01-04T07:50:00.334Z,4
2023-01-04T07:55:00.251Z,5
2023-01-04T08:00:00.279Z,4
2023-01-04T08:05:00.513Z,4
2023-01-04T08:10:00.285Z,5
2023-01-04T08:15:00.231Z,4
2023-01-04T08:20:00.266Z,5
2023-01-04T08:25:00.283Z,5
2023-01-04T08:30:00.301Z,5
2023-01-04T08:35:00.213Z,4
2023-01-04T08:40:00.282Z,5
2023-01-04T08:45:00.369Z,5
2023-01-04T08:50:03.427Z,6
2023-01-04T08:55:00.545Z,5
2023-01-04T09:00:00.243Z,5
2023-01-04T09:05:00.370Z,5
2023-01-04T09:10:00.245Z,5
2023-01-04T09:15:00.325Z,4
2023-01-04T09:20:00.208Z,4
2023-01-04T09:25:00.219Z,5
2023-01-04T09:30:00.292Z,5
2023-01-04T09:35:00.225Z,5
2023-01-04T09:40:00.252Z,5
2023-01-04T09:45:24.805Z,6
2023-01-04T09:50:00.272Z,5
2023-01-04T09:55:02.708Z,5
2023-01-04T10:00:00.242Z,6
2023-01-04T10:05:00.334Z,6
2023-01-04T10:10:00.274Z,6
2023-01-04T10:15:00.223Z,5
2023-01-04T10:25:00.289Z,5
2023-01-04T10:35:00.668Z,5
2023-01-04T10:40:00.666Z,6
2023-01-04T10:45:06.719Z,5
2023-01-04T10:50:00.634Z,4
2023-01-04T11:00:00.440Z,5
2023-01-04T11:05:00.445Z,5
2023-01-04T11:10:00.428Z,5
2023-01-04T11:15:00.416Z,4
2023-01-04T11:20:00.465Z,5
2023-01-04T11:25:34.268Z,5
2023-01-04T11:30:00.415Z,4
2023-01-04T11:35:00.457Z,5
2023-01-04T11:40:00.498Z,4
2023-01-04T11:45:00.416Z,4
2023-01-04T11:50:00.487Z,5
2023-01-04T11:55:00.412Z,4
2023-01-04T12:00:00.425Z,4
2023-01-04T12:05:00.443Z,5
2023-01-04T12:10:00.405Z,5
2023-01-04T12:15:00.444Z,6
2023-01-04T12:20:00.419Z,5
2023-01-04T12:25:01.114Z,5
2023-01-04T12:30:00.471Z,4
2023-01-04T12:35:00.441Z,5
2023-01-04T12:40:00.469Z,4
2023-01-04T12:45:00.406Z,6
2023-01-04T12:50:00.465Z,4
2023-01-04T12:55:00.495Z,6
2023-01-04T13:00:00.467Z,6
2023-01-04T13:05:35.493Z,6
2023-01-04T13:10:00.540Z,6
2023-01-04T13:15:00.417Z,6
2023-01-04T13:20:00.451Z,5
2023-01-04T13:25:00.454Z,6
2023-01-04T13:30:00.429Z,6
2023-01-04T13:35:00.463Z,6
2023-01-04T13:40:00.409Z,6
2023-01-04T13:45:20.671Z,6
2023-01-04T13:50:00.465Z,6
2023-01-04T13:55:00.405Z,7
2023-01-04T14:00:00.565Z,5
2023-01-04T14:05:00.441Z,5
2023-01-04T14:10:00.454Z,5
2023-01-04T14:15:00.425Z,5
2023-01-04T14:20:00.470Z,5
2023-01-04T14:25:09.296Z,6
2023-01-04T14:30:00.455Z,6
2023-01-04T14:35:02.428Z,6
2023-01-04T14:40:00.426Z,6
2023-01-04T14:45:00.445Z,7
2023-01-04T14:50:00.449Z,6
2023-01-04T14:55:00.421Z,6
2023-01-04T15:00:00.456Z,6
2023-01-04T15:05:00.403Z,6
2023-01-04T15:10:00.458Z,7
2023-01-04T15:15:00.394Z,6
2023-01-04T15:20:00.539Z,6
2023-01-04T15:25:00.519Z,6
2023-01-04T15:30:00.501Z,6
2023-01-04T15:35:00.483Z,6
2023-01-04T15:40:03.041Z,6
2023-01-04T15:45:00.479Z,5
2023-01-04T15:50:02.483Z,7
2023-01-04T15:55:00.506Z,5
2023-01-04T16:00:00.501Z,5
2023-01-04T16:05:00.484Z,6
2023-01-04T16:10:00.665Z,6
2023-01-04T16:15:00.505Z,6
2023-01-04T16:20:00.484Z,4
2023-01-04T16:25:10.179Z,6
2023-01-04T16:30:00.468Z,5
2023-01-04T16:35:00.473Z,6
2023-01-04T16:40:08.401Z,6
2023-01-04T16:45:00.472Z,6
2023-01-04T16:50:00.453Z,6
2023-01-04T16:55:00.481Z,7
2023-01-04T17:00:00.461Z,6
2023-01-04T17:05:00.484Z,7
2023-01-04T17:10:00.472Z,5
2023-01-04T17:15:41.122Z,7
2023-01-04T17:20:00.440Z,5
2023-01-04T17:25:00.465Z,7
2023-01-04T17:30:00.482Z,6
2023-01-04T17:35:00.475Z,7
2023-01-04T17:40:00.527Z,6
2023-01-04T17:45:00.436Z,6
2023-01-04T17:50:00.466Z,6
2023-01-04T17:55:02.470Z,7
2023-01-04T18:00:00.508Z,5
2023-01-04T18:05:00.451Z,6
2023-01-04T18:10:00.486Z,7
2023-01-04T18:15:00.487Z,5
2023-01-04T18:20:00.481Z,6
2023-01-04T18:25:00.474Z,7
2023-01-04T18:30:00.451Z,7
2023-01-04T18:35:00.474Z,6
2023-01-04T18:40:02.475Z,6
2023-01-04T18:45:00.430Z,6
2023-01-04T18:50:00.476Z,6
2023-01-04T18:55:00.443Z,6
2023-01-04T19:00:02.479Z,8
2023-01-04T19:05:00.460Z,6
2023-01-04T19:10:00.487Z,6
2023-01-04T19:15:00.474Z,6
2023-01-04T19:20:00.500Z,8
2023-01-04T19:25:00.421Z,6
2023-01-04T19:30:00.438Z,5
2023-01-04T19:35:00.516Z,5
2023-01-04T19:40:00.451Z,5
2023-01-04T19:45:00.417Z,6
2023-01-04T19:50:00.471Z,7
2023-01-04T19:55:00.414Z,5
2023-01-04T20:00:00.449Z,6
2023-01-04T20:05:00.471Z,5
2023-01-04T20:10:00.403Z,5
2023-01-04T20:15:00.436Z,4
2023-01-04T20:20:00.448Z,5
2023-01-04T20:25:00.411Z,5
2023-01-04T20:30:00.459Z,4
2023-01-04T20:35:00.409Z,4
2023-01-04T20:40:00.423Z,4
2023-01-04T20:45:00.426Z,6
2023-01-04T20:50:00.466Z,7
2023-01-04T20:55:00.449Z,5
2023-01-04T21:00:00.317Z,5
2023-01-04T21:10:00.458Z,6
2023-01-04T21:15:00.445Z,4
2023-01-04T21:20:00.369Z,3
2023-01-04T21:35:02.346Z,1
2023-01-04T21:40:00.564Z,3
2023-01-04T21:45:00.507Z,6
2023-01-04T21:50:00.457Z,5
2023-01-04T21:55:00.463Z,5
2023-01-04T22:00:00.511Z,6
2023-01-04T22:05:00.497Z,6
2023-01-04T22:10:00.492Z,5
2023-01-04T22:15:00.463Z,6
2023-01-04T22:20:02.492Z,6
2023-01-04T22:25:00.453Z,7
2023-01-04T22:30:00.557Z,7
2023-01-04T22:35:00.498Z,8
2023-01-04T22:40:00.513Z,7
2023-01-04T22:45:00.493Z,7
2023-01-04T22:50:00.462Z,6
2023-01-04T22:55:00.459Z,8
2023-01-04T23:00:00.612Z,6
2023-01-04T23:05:00.472Z,6
2023-01-04T23:10:00.564Z,6
2023-01-04T23:15:00.573Z,5
2023-01-04T23:20:00.493Z,5
2023-01-04T23:25:00.413Z,6
2023-01-04T23:30:00.540Z,5
2023-01-04T23:35:00.445Z,6
2023-01-04T23:40:00.508Z,6
2023-01-04T23:45:00.449Z,7
2023-01-04T23:50:00.480Z,6
2023-01-04T23:55:00.440Z,6
